createdAt,value
2023-01-09T00:02:00.272Z,4.29
2023-01-09T00:04:28.670Z,4.43
2023-01-09T00:06:57.099Z,4.40
2023-01-09T00:09:26.443Z,4.42
2023-01-09T00:11:56.121Z,4.30
2023-01-09T00:14:25.929Z,4.28
2023-01-09T00:16:56.687Z,4.30
2023-01-09T00:19:25.306Z,4.25
2023-01-09T00:21:53.843Z,4.08
2023-01-09T00:24:22.278Z,4.15
2023-01-09T00:26:50.760Z,4.17
2023-01-09T00:29:19.149Z,4.21
2023-01-09T00:31:48.942Z,4.17
2023-01-09T00:34:17.466Z,4.21
2023-01-09T00:36:46.397Z,4.13
2023-01-09T00:39:14.784Z,4.10
2023-01-09T00:41:47.894Z,3.94
2023-01-09T00:44:19.448Z,3.93
2023-01-09T00:46:52.162Z,3.87
2023-01-09T00:49:21.276Z,3.99
2023-01-09T00:51:50.306Z,3.99
2023-01-09T00:54:21.843Z,3.67
2023-01-09T00:56:51.479Z,3.79
2023-01-09T00:59:19.888Z,3.68
2023-01-09T01:01:50.148Z,3.72
2023-01-09T01:04:36.023Z,3.69
2023-01-09T01:07:21.813Z,3.64
2023-01-09T01:09:50.194Z,3.65
2023-01-09T01:12:18.623Z,3.66
2023-01-09T01:14:47.070Z,3.71
2023-01-09T01:17:16.986Z,3.81
2023-01-09T01:19:45.419Z,3.81
2023-01-09T01:22:14.307Z,3.72
2023-01-09T01:24:42.947Z,3.83
2023-01-09T01:27:11.357Z,3.76
2023-01-09T01:29:39.847Z,3.79
2023-01-09T01:32:08.266Z,3.83
2023-01-09T01:34:38.072Z,3.75
2023-01-09T01:37:06.562Z,3.72
2023-01-09T01:39:35.034Z,3.74
2023-01-09T01:42:04.961Z,3.75
2023-01-09T01:44:59.996Z,3.80
2023-01-09T01:47:34.652Z,3.74
2023-01-09T01:50:06.779Z,3.76
2023-01-09T01:52:38.896Z,3.64
2023-01-09T01:55:09.878Z,3.68
2023-01-09T01:57:42.485Z,3.74
2023-01-09T02:00:13.582Z,3.64
2023-01-09T02:02:43.732Z,3.62
2023-01-09T02:05:14.226Z,3.61
2023-01-09T02:07:42.602Z,3.57
2023-01-09T02:10:12.069Z,3.47
2023-01-09T02:12:40.421Z,3.40
2023-01-09T02:15:12.259Z,3.51
2023-01-09T02:18:03.971Z,3.53
2023-01-09T02:20:41.180Z,3.52
2023-01-09T02:23:49.761Z,3.50
2023-01-09T02:26:47.531Z,3.43
2023-01-09T02:29:47.142Z,3.41
2023-01-09T02:32:33.304Z,3.39
2023-01-09T02:35:10.773Z,3.38
2023-01-09T02:37:46.641Z,3.40
2023-01-09T02:40:25.807Z,3.40
2023-01-09T02:42:56.935Z,3.41
2023-01-09T02:45:25.420Z,3.24
2023-01-09T02:47:55.376Z,3.36
2023-01-09T02:50:31.617Z,3.31
2023-01-09T02:53:23.375Z,3.38
2023-01-09T02:56:00.231Z,3.34
2023-01-09T02:58:47.122Z,3.32
2023-01-09T03:01:32.725Z,3.32
2023-01-09T03:04:10.911Z,3.33
2023-01-09T03:06:47.551Z,3.28
2023-01-09T03:09:20.478Z,3.22
2023-01-09T03:11:52.602Z,3.28
2023-01-09T03:14:27.449Z,3.25
2023-01-09T03:17:01.962Z,3.17
2023-01-09T03:19:33.780Z,3.22
2023-01-09T03:22:02.932Z,3.27
2023-01-09T03:24:31.444Z,3.26
2023-01-09T03:26:59.945Z,3.29
2023-01-09T03:29:29.612Z,3.35
2023-01-09T03:31:58.094Z,3.37
2023-01-09T03:34:26.738Z,3.38
2023-01-09T03:36:56.710Z,3.35
2023-01-09T03:39:25.480Z,3.34
2023-01-09T03:41:53.992Z,3.35
2023-01-09T03:44:25.045Z,3.30
2023-01-09T03:46:57.036Z,3.31
2023-01-09T03:49:25.958Z,3.28
2023-01-09T03:51:55.896Z,3.29
2023-01-09T03:54:24.372Z,3.31
2023-01-09T03:56:53.022Z,3.33
2023-01-09T03:59:21.488Z,3.31
2023-01-09T04:01:50.260Z,3.37
2023-01-09T04:04:19.097Z,3.31
2023-01-09T04:06:47.481Z,3.30
2023-01-09T04:09:17.306Z,3.34
2023-01-09T04:11:46.382Z,3.44
2023-01-09T04:14:15.398Z,3.47
2023-01-09T04:16:44.050Z,3.46
2023-01-09T04:19:12.565Z,3.37
2023-01-09T04:21:40.997Z,3.39
2023-01-09T04:24:09.873Z,3.29
2023-01-09T04:26:39.705Z,3.34
2023-01-09T04:29:08.187Z,3.32
2023-01-09T04:31:36.781Z,3.18
2023-01-09T04:34:05.237Z,3.29
2023-01-09T04:36:34.774Z,3.31
2023-01-09T04:39:03.319Z,3.32
2023-01-09T04:41:45.530Z,3.29
2023-01-09T04:44:15.449Z,3.28
2023-01-09T04:46:43.919Z,3.28
2023-01-09T04:49:12.324Z,3.30
2023-01-09T04:51:40.843Z,3.20
2023-01-09T04:54:09.390Z,3.26
2023-01-09T04:56:38.496Z,3.28
2023-01-09T04:59:08.559Z,3.27
2023-01-09T05:01:38.768Z,3.31
2023-01-09T05:04:07.766Z,3.31
2023-01-09T05:06:36.445Z,3.32
2023-01-09T05:09:05.103Z,3.24
2023-01-09T05:11:33.547Z,3.26
2023-01-09T05:14:01.976Z,3.23
2023-01-09T05:16:31.499Z,3.24
2023-01-09T05:19:01.464Z,3.25
2023-01-09T05:21:30.012Z,3.31
2023-01-09T05:23:58.421Z,3.37
2023-01-09T05:26:26.992Z,3.30
2023-01-09T05:28:56.676Z,3.34
2023-01-09T05:31:26.889Z,3.30
2023-01-09T05:33:56.025Z,3.30
2023-01-09T05:36:25.979Z,3.17
2023-01-09T05:38:54.519Z,3.23
2023-01-09T05:41:24.233Z,3.33
2023-01-09T05:43:52.741Z,3.34
2023-01-09T05:46:21.308Z,3.37
2023-01-09T05:48:49.761Z,3.40
2023-01-09T05:51:18.396Z,3.39
2023-01-09T05:53:48.259Z,3.42
2023-01-09T05:56:17.439Z,3.47
2023-01-09T05:58:46.367Z,3.51
2023-01-09T06:01:14.813Z,3.44
2023-01-09T06:03:43.313Z,3.54
2023-01-09T06:06:12.013Z,3.55
2023-01-09T06:08:40.400Z,3.60
2023-01-09T06:11:10.623Z,3.53
2023-01-09T06:13:39.139Z,3.61
2023-01-09T06:16:08.858Z,3.64
2023-01-09T06:18:37.575Z,3.57
2023-01-09T06:21:06.367Z,3.68
2023-01-09T06:23:34.876Z,3.68
2023-01-09T06:26:03.365Z,3.71
2023-01-09T06:28:33.158Z,3.74
2023-01-09T06:31:01.629Z,3.74
2023-01-09T06:33:30.189Z,3.65
2023-01-09T06:35:58.727Z,3.64
2023-01-09T06:38:27.303Z,3.79
2023-01-09T06:40:55.667Z,3.79
2023-01-09T06:43:24.204Z,3.83
2023-01-09T06:45:54.091Z,3.84
2023-01-09T06:48:22.496Z,3.83
2023-01-09T06:50:50.893Z,3.85
2023-01-09T06:53:19.431Z,3.76
2023-01-09T06:55:48.392Z,3.87
2023-01-09T06:58:17.196Z,3.86
2023-01-09T07:00:45.607Z,3.87
2023-01-09T07:03:19.914Z,3.77
2023-01-09T07:05:48.564Z,3.89
2023-01-09T07:08:17.347Z,3.84
2023-01-09T07:10:46.420Z,3.89
2023-01-09T07:13:14.929Z,3.82
2023-01-09T07:15:43.866Z,3.79
2023-01-09T07:18:16.725Z,3.66
2023-01-09T07:20:45.184Z,3.66
2023-01-09T07:23:14.116Z,3.81
2023-01-09T07:25:44.365Z,3.82
2023-01-09T07:28:12.861Z,3.82
2023-01-09T07:30:41.433Z,3.79
2023-01-09T07:33:09.925Z,3.83
2023-01-09T07:35:39.954Z,3.84
2023-01-09T07:38:08.389Z,3.78
2023-01-09T07:40:37.418Z,3.80
2023-01-09T07:43:06.178Z,3.85
2023-01-09T07:45:34.593Z,3.84
2023-01-09T07:48:05.772Z,3.83
2023-01-09T07:50:34.157Z,3.82
2023-01-09T07:53:04.180Z,3.83
2023-01-09T07:55:32.702Z,3.83
2023-01-09T07:58:01.113Z,3.84
2023-01-09T08:00:30.757Z,3.82
2023-01-09T08:03:00.832Z,3.82
2023-01-09T08:05:29.220Z,3.87
2023-01-09T08:08:00.167Z,3.87
2023-01-09T08:10:30.135Z,3.77
2023-01-09T08:12:58.520Z,3.92
2023-01-09T08:15:26.897Z,3.91
2023-01-09T08:17:55.431Z,3.88
2023-01-09T08:20:24.565Z,3.95
2023-01-09T08:22:54.497Z,3.92
2023-01-09T08:25:23.458Z,4.04
2023-01-09T08:27:54.007Z,4.03
2023-01-09T08:30:23.664Z,4.01
2023-01-09T08:32:53.198Z,3.95
2023-01-09T08:35:22.116Z,4.05
2023-01-09T08:37:50.666Z,4.09
2023-01-09T08:40:20.009Z,4.11
2023-01-09T08:43:05.624Z,4.15
2023-01-09T08:45:53.821Z,4.17
2023-01-09T08:48:22.476Z,4.19
2023-01-09T08:50:52.471Z,4.19
2023-01-09T08:53:21.029Z,4.19
2023-01-09T08:55:49.850Z,4.27
2023-01-09T08:58:18.278Z,4.29
2023-01-09T09:00:48.270Z,4.33
2023-01-09T09:03:17.616Z,4.27
2023-01-09T09:05:46.902Z,4.39
2023-01-09T09:08:16.109Z,4.42
2023-01-09T09:10:44.496Z,4.47
2023-01-09T09:13:12.949Z,4.52
2023-01-09T09:15:41.306Z,4.48
2023-01-09T09:18:11.167Z,4.61
2023-01-09T09:20:40.573Z,4.66
2023-01-09T09:23:09.558Z,4.71
2023-01-09T09:25:39.676Z,4.71
2023-01-09T09:28:08.672Z,4.80
2023-01-09T09:30:37.198Z,4.83
2023-01-09T09:33:06.546Z,4.89
2023-01-09T09:35:36.600Z,4.90
2023-01-09T09:38:06.417Z,4.99
2023-01-09T09:40:56.285Z,5.05
2023-01-09T09:44:07.899Z,5.09
2023-01-09T09:46:46.050Z,5.16
2023-01-09T09:49:19.818Z,5.22
2023-01-09T09:52:02.677Z,5.27
2023-01-09T09:54:35.850Z,5.30
2023-01-09T09:57:06.001Z,5.35
2023-01-09T09:59:38.325Z,5.36
2023-01-09T10:02:24.008Z,5.31
2023-01-09T10:04:59.391Z,5.46
2023-01-09T10:07:34.320Z,5.50
2023-01-09T10:10:07.316Z,5.49
2023-01-09T10:12:43.436Z,5.55
2023-01-09T10:15:18.069Z,5.61
2023-01-09T10:17:57.090Z,5.92
2023-01-09T10:20:50.791Z,5.92
2023-01-09T10:23:38.289Z,5.89
2023-01-09T10:26:13.343Z,5.94
2023-01-09T10:29:16.851Z,5.98
2023-01-09T10:31:57.435Z,5.98
2023-01-09T10:34:40.676Z,6.02
2023-01-09T10:37:14.739Z,6.04
2023-01-09T10:39:48.375Z,5.99
2023-01-09T10:42:23.373Z,6.09
2023-01-09T10:44:58.417Z,6.08
2023-01-09T10:47:31.501Z,6.07
2023-01-09T10:50:01.422Z,6.18
2023-01-09T10:52:36.846Z,6.22
2023-01-09T10:55:20.601Z,6.27
2023-01-09T10:57:54.414Z,6.31
2023-01-09T11:00:25.225Z,6.35
2023-01-09T11:02:54.947Z,6.40
2023-01-09T11:05:27.876Z,6.37
2023-01-09T11:08:02.543Z,6.46
2023-01-09T11:10:48.302Z,6.49
2023-01-09T11:13:21.862Z,6.47
2023-01-09T11:16:19.297Z,6.55
2023-01-09T11:18:53.262Z,6.60
2023-01-09T11:21:33.467Z,6.64
2023-01-09T11:24:29.056Z,6.68
2023-01-09T11:27:27.542Z,6.74
2023-01-09T11:30:22.751Z,6.80
2023-01-09T11:32:51.382Z,6.83
2023-01-09T11:35:23.189Z,6.87
2023-01-09T11:38:03.180Z,6.93
2023-01-09T11:40:37.194Z,6.93
2023-01-09T11:43:15.715Z,7.01
2023-01-09T11:45:59.870Z,7.08
2023-01-09T11:48:35.974Z,7.11
2023-01-09T11:51:07.241Z,7.14
2023-01-09T11:53:55.283Z,7.19
2023-01-09T11:56:24.183Z,7.23
2023-01-09T11:58:54.529Z,7.27
2023-01-09T12:02:00.008Z,7.31
2023-01-09T12:04:34.056Z,7.35
2023-01-09T12:07:18.129Z,7.39
2023-01-09T12:09:59.062Z,7.44
2023-01-09T12:12:32.527Z,7.47
2023-01-09T12:15:20.382Z,7.50
2023-01-09T12:18:07.127Z,7.53
2023-01-09T12:20:51.957Z,7.57
2023-01-09T12:23:33.250Z,7.60
2023-01-09T12:26:14.705Z,7.67
2023-01-09T12:29:31.167Z,7.73
2023-01-09T12:32:20.873Z,7.77
2023-01-09T12:35:01.345Z,7.81
2023-01-09T12:38:02.947Z,7.89
2023-01-09T12:41:06.755Z,7.91
2023-01-09T12:43:45.303Z,7.94
2023-01-09T12:46:19.475Z,7.97
2023-01-09T12:49:06.603Z,7.99
2023-01-09T12:51:43.397Z,8.01
2023-01-09T12:54:20.817Z,8.03
2023-01-09T12:56:54.365Z,8.06
2023-01-09T12:59:31.196Z,8.08
2023-01-09T13:02:08.029Z,8.12
2023-01-09T13:04:45.666Z,8.14
2023-01-09T13:07:20.397Z,8.14
2023-01-09T13:09:54.144Z,8.16
2023-01-09T13:12:26.245Z,8.17
2023-01-09T13:15:01.507Z,8.16
2023-01-09T13:17:37.834Z,8.18
2023-01-09T13:20:21.439Z,8.20
2023-01-09T13:22:54.052Z,8.24
2023-01-09T13:25:37.616Z,8.18
2023-01-09T13:28:14.945Z,8.26
2023-01-09T13:30:59.775Z,8.28
2023-01-09T13:33:31.323Z,8.28
2023-01-09T13:36:03.955Z,8.27
2023-01-09T13:38:34.382Z,8.29
2023-01-09T13:41:23.269Z,8.30
2023-01-09T13:43:57.488Z,8.31
2023-01-09T13:46:38.371Z,8.33
2023-01-09T13:49:09.005Z,8.35
2023-01-09T13:52:01.227Z,8.35
2023-01-09T13:55:07.005Z,8.40
2023-01-09T13:57:37.231Z,8.41
2023-01-09T14:00:43.216Z,8.43
2023-01-09T14:03:20.930Z,8.46
2023-01-09T14:06:22.807Z,8.46
2023-01-09T14:09:13.375Z,8.46
2023-01-09T14:11:42.246Z,8.37
2023-01-09T14:14:27.535Z,8.48
2023-01-09T14:16:56.688Z,8.47
2023-01-09T14:19:35.654Z,8.50
2023-01-09T14:22:05.114Z,8.44
2023-01-09T14:24:42.781Z,8.44
2023-01-09T14:27:44.197Z,8.58
2023-01-09T14:30:29.423Z,8.71
2023-01-09T14:32:59.358Z,8.69
2023-01-09T14:35:35.446Z,8.74
2023-01-09T14:38:12.135Z,8.72
2023-01-09T14:40:49.001Z,8.68
2023-01-09T14:43:27.964Z,8.65
2023-01-09T14:46:05.117Z,8.55
2023-01-09T14:48:35.645Z,8.61
2023-01-09T14:51:08.634Z,8.62
2023-01-09T14:53:39.795Z,8.59
2023-01-09T14:56:29.356Z,8.48
2023-01-09T14:59:14.467Z,8.56
2023-01-09T15:01:46.285Z,8.50
2023-01-09T15:04:27.097Z,8.55
2023-01-09T15:06:55.742Z,8.56
2023-01-09T15:09:27.940Z,8.59
2023-01-09T15:12:02.543Z,8.60
2023-01-09T15:14:36.230Z,8.57
2023-01-09T15:17:05.637Z,8.53
2023-01-09T15:19:35.046Z,8.46
2023-01-09T15:22:06.557Z,8.43
2023-01-09T15:24:35.913Z,8.43
2023-01-09T15:27:15.529Z,8.44
2023-01-09T15:29:44.540Z,8.45
2023-01-09T15:32:18.975Z,8.39
2023-01-09T15:34:47.981Z,8.48
2023-01-09T15:37:27.011Z,8.47
2023-01-09T15:39:56.211Z,8.46
2023-01-09T15:42:45.761Z,8.39
2023-01-09T15:45:32.722Z,8.39
2023-01-09T15:48:17.246Z,8.38
2023-01-09T15:50:46.684Z,8.35
2023-01-09T15:53:17.578Z,8.38
2023-01-09T15:55:46.897Z,8.32
2023-01-09T15:58:30.455Z,8.30
2023-01-09T16:01:01.561Z,8.29
2023-01-09T16:03:30.957Z,8.25
2023-01-09T16:06:05.801Z,8.29
2023-01-09T16:08:37.189Z,8.28
2023-01-09T16:11:08.708Z,8.28
2023-01-09T16:13:45.701Z,8.27
2023-01-09T16:16:15.419Z,8.28
2023-01-09T16:18:52.368Z,8.27
2023-01-09T16:21:35.710Z,8.24
2023-01-09T16:24:22.613Z,8.22
2023-01-09T16:26:54.178Z,8.19
2023-01-09T16:29:36.921Z,8.23
2023-01-09T16:32:07.646Z,8.24
2023-01-09T16:34:37.397Z,8.26
2023-01-09T16:37:07.169Z,8.23
2023-01-09T16:39:36.158Z,8.16
2023-01-09T16:42:27.473Z,8.20
2023-01-09T16:44:57.525Z,8.19
2023-01-09T16:47:27.164Z,8.18
2023-01-09T16:49:55.973Z,8.18
2023-01-09T16:52:24.475Z,8.16
2023-01-09T16:54:53.261Z,8.11
2023-01-09T16:57:22.251Z,8.11
2023-01-09T16:59:50.986Z,8.09
2023-01-09T17:02:22.384Z,8.08
2023-01-09T17:04:51.038Z,8.03
2023-01-09T17:07:21.227Z,8.06
2023-01-09T17:09:49.906Z,8.01
2023-01-09T17:12:20.439Z,8.09
2023-01-09T17:14:49.316Z,8.04
2023-01-09T17:17:18.647Z,8.10
2023-01-09T17:19:48.718Z,8.10
2023-01-09T17:22:17.462Z,8.05
2023-01-09T17:25:03.081Z,8.12
2023-01-09T17:27:52.109Z,8.07
2023-01-09T17:30:21.232Z,8.18
2023-01-09T17:32:50.295Z,8.17
2023-01-09T17:35:20.720Z,8.12
2023-01-09T17:37:49.116Z,8.04
2023-01-09T17:40:20.572Z,8.09
2023-01-09T17:42:49.059Z,8.07
2023-01-09T17:45:17.674Z,8.14
2023-01-09T17:47:46.132Z,8.15
2023-01-09T17:50:21.369Z,8.09
2023-01-09T17:52:51.188Z,8.21
2023-01-09T17:55:19.891Z,8.19
2023-01-09T17:57:48.287Z,8.17
2023-01-09T18:00:26.740Z,8.10
2023-01-09T18:02:55.765Z,8.06
2023-01-09T18:05:27.799Z,8.01
2023-01-09T18:07:56.540Z,8.02
2023-01-09T18:10:27.346Z,8.02
2023-01-09T18:12:57.350Z,7.99
2023-01-09T18:15:25.831Z,7.91
2023-01-09T18:17:54.223Z,7.95
2023-01-09T18:20:22.658Z,7.95
2023-01-09T18:22:52.929Z,7.92
2023-01-09T18:25:21.387Z,7.81
2023-01-09T18:27:49.840Z,7.86
2023-01-09T18:30:18.549Z,7.84
2023-01-09T18:32:47.026Z,7.82
2023-01-09T18:35:15.810Z,7.75
2023-01-09T18:37:44.313Z,7.78
2023-01-09T18:40:14.834Z,7.72
2023-01-09T18:42:45.217Z,7.65
2023-01-09T18:45:14.024Z,7.73
2023-01-09T18:47:42.457Z,7.69
2023-01-09T18:50:12.540Z,7.69
2023-01-09T18:52:40.950Z,7.63
2023-01-09T18:55:10.320Z,7.59
2023-01-09T18:57:40.182Z,7.50
2023-01-09T19:00:11.746Z,7.57
2023-01-09T19:02:40.466Z,7.58
2023-01-09T19:05:09.431Z,7.56
2023-01-09T19:07:37.869Z,7.55
2023-01-09T19:10:10.114Z,7.45
2023-01-09T19:12:40.207Z,7.45
2023-01-09T19:15:11.726Z,7.40
2023-01-09T19:17:40.527Z,7.32
2023-01-09T19:20:10.503Z,7.40
2023-01-09T19:22:38.903Z,7.37
2023-01-09T19:25:09.017Z,7.31
2023-01-09T19:27:37.600Z,7.31
2023-01-09T19:30:09.864Z,7.30
2023-01-09T19:32:38.582Z,7.25
2023-01-09T19:35:07.667Z,7.24
2023-01-09T19:37:37.563Z,7.21
2023-01-09T19:40:06.841Z,7.07
2023-01-09T19:42:35.277Z,7.03
2023-01-09T19:45:03.786Z,7.00
2023-01-09T19:47:37.011Z,7.04
2023-01-09T19:50:06.388Z,7.01
2023-01-09T19:52:34.984Z,7.00
2023-01-09T19:55:03.358Z,6.95
2023-01-09T19:57:31.988Z,6.86
2023-01-09T20:00:00.439Z,6.96
2023-01-09T20:02:28.926Z,6.90
2023-01-09T20:04:58.910Z,6.90
2023-01-09T20:07:27.314Z,6.81
2023-01-09T20:09:56.289Z,6.78
2023-01-09T20:12:24.676Z,6.72
2023-01-09T20:14:53.052Z,6.70
2023-01-09T20:17:21.540Z,6.71
2023-01-09T20:19:49.962Z,6.69
2023-01-09T20:22:19.783Z,6.71
2023-01-09T20:24:48.174Z,6.68
2023-01-09T20:27:16.702Z,6.68
2023-01-09T20:29:45.782Z,6.68
2023-01-09T20:32:14.449Z,6.68
2023-01-09T20:34:44.039Z,6.69
2023-01-09T20:37:12.600Z,6.70
2023-01-09T20:39:42.472Z,6.71
2023-01-09T20:42:12.494Z,6.72
2023-01-09T20:44:40.918Z,6.70
2023-01-09T20:47:09.529Z,6.72
2023-01-09T20:49:37.992Z,6.73
2023-01-09T20:52:06.664Z,6.72
2023-01-09T20:54:36.066Z,6.69
2023-01-09T20:57:06.041Z,6.69
2023-01-09T20:59:34.801Z,6.67
2023-01-09T21:02:03.505Z,6.59
2023-01-09T21:04:32.490Z,6.67
2023-01-09T21:07:01.501Z,6.59
2023-01-09T21:09:29.934Z,6.63
2023-01-09T21:11:58.419Z,6.62
2023-01-09T21:14:29.017Z,6.60
2023-01-09T21:16:57.510Z,6.60
2023-01-09T21:19:25.965Z,6.59
2023-01-09T21:21:54.429Z,6.59
2023-01-09T21:24:23.281Z,6.57
2023-01-09T21:26:51.856Z,6.54
2023-01-09T21:29:20.427Z,6.56
2023-01-09T21:31:50.602Z,6.47
2023-01-09T21:34:20.955Z,6.56
2023-01-09T21:36:50.057Z,6.53
2023-01-09T21:39:19.982Z,6.54
2023-01-09T21:42:06.088Z,6.54
2023-01-09T21:44:51.664Z,6.57
2023-01-09T21:47:21.553Z,6.57
2023-01-09T21:49:50.224Z,6.49
2023-01-09T21:52:19.687Z,6.57
2023-01-09T21:54:48.132Z,6.56
2023-01-09T21:57:16.987Z,6.56
2023-01-09T21:59:45.457Z,6.55
2023-01-09T22:02:16.045Z,6.56
2023-01-09T22:04:49.257Z,6.55
2023-01-09T22:07:18.651Z,6.50
2023-01-09T22:09:47.349Z,6.57
2023-01-09T22:12:15.772Z,6.58
2023-01-09T22:14:44.420Z,6.57
2023-01-09T22:17:12.991Z,6.57
2023-01-09T22:19:41.402Z,6.57
2023-01-09T22:22:13.658Z,6.57
2023-01-09T22:24:42.060Z,6.60
2023-01-09T22:27:10.427Z,6.62
2023-01-09T22:29:38.782Z,6.61
2023-01-09T22:32:07.311Z,6.61
2023-01-09T22:34:35.688Z,6.61
2023-01-09T22:37:04.414Z,6.60
2023-01-09T22:39:34.239Z,6.60
2023-01-09T22:42:02.824Z,6.52
2023-01-09T22:44:31.319Z,6.58
2023-01-09T22:47:00.655Z,6.60
2023-01-09T22:49:33.504Z,6.76
2023-01-09T22:52:09.779Z,6.75
2023-01-09T22:54:39.716Z,6.72
2023-01-09T22:57:08.083Z,6.72
2023-01-09T22:59:36.676Z,6.63
2023-01-09T23:02:05.312Z,6.69
2023-01-09T23:04:33.791Z,6.70
2023-01-09T23:07:02.546Z,6.60
2023-01-09T23:09:30.895Z,6.71
2023-01-09T23:12:03.390Z,6.79
2023-01-09T23:14:33.417Z,7.15
2023-01-09T23:17:01.826Z,7.15
2023-01-09T23:19:30.920Z,7.16
2023-01-09T23:21:59.853Z,7.04
2023-01-09T23:24:29.670Z,6.97
2023-01-09T23:26:58.736Z,7.13
2023-01-09T23:29:28.755Z,7.10
2023-01-09T23:31:57.249Z,7.07
2023-01-09T23:34:27.760Z,7.01
2023-01-09T23:36:57.767Z,6.97
2023-01-09T23:39:26.821Z,6.93
2023-01-09T23:42:12.303Z,6.87
2023-01-09T23:44:42.150Z,6.88
2023-01-09T23:47:12.005Z,6.85
2023-01-09T23:49:40.592Z,6.84
2023-01-09T23:52:12.001Z,6.79
2023-01-09T23:54:40.454Z,6.79
2023-01-09T23:57:08.920Z,6.78
2023-01-09T23:59:37.342Z,6.76
